CheckWX is a tool to help pilots better visualize weather data.  It is not intended as a substitute for an official pre-flight weather briefing.

15:19:56 UTC

GMTA TAF
Cherif Al Idrissi Airport
Al Hoceima, Morocco
TAF GMTA 291100Z 2912/3018 04010KT 9999 SCT020 BKN026 PROB30 3000/3006 4000 BR

May-29@
12:00 UTC

May-29 @ 12:00 UTC

May-30@
18:00 UTC

May-30 @ 18:00 UTC

TAF GMTA 291100Z 2912/3018 04010KT 9999 SCT020 BKN026
Wind
  • 040° at 10 KTS
Cloud Levels
  • Scattered at 2,000' AGL
  • Broken at 2,600' AGL

May-30@
00:00 UTC

May-30 @ 00:00 UTC

May-30@
06:00 UTC

May-30 @ 06:00 UTC

PROB30 3000/3006 4000 BR

Expired

Conditions
Mist
Cloud Levels